Karatsu, Japan
Current Conditions -  °F | °C
As of 2:00 PM on Friday 28 Nov 2014 (Local Time) from RJFS Reporting Station
Broken Clouds Broken Clouds  
Wind Chill: 64°   Ceiling: 8000
Heat Index: 64°   Visibility: 6mi
Dew Point: 52°   Wind: 1mph
Humidity: 64%   Direction: NA
Pressure: 29.97"   Gusts: NA
Location:  33.44°N, 129.97°E
Report Text: RJFS 280500Z VRB01KT 9999 FEW030 SCT060 BKN080 18/11 Q1015
Loading
Personal Weather Stations






























Interactive Weather Map New forecast layout! Learn more

10-Day Weather Forecast

Advertisements
Track Severe Weather on mobile